sensor_id;sensor_type;location;lat;lon;timestamp;pressure;altitude;pressure_sealevel;temperature;humidity
53262;BME280;39658;51.090;-1.786;2023-01-27T00:01:19;102368.53;;;23.40;39.02
53262;BME280;39658;51.090;-1.786;2023-01-27T00:03:48;102372.06;;;23.34;38.94
53262;BME280;39658;51.090;-1.786;2023-01-27T00:06:14;102364.91;;;23.27;39.01
53262;BME280;39658;51.090;-1.786;2023-01-27T00:08:41;102373.81;;;23.21;39.24
53262;BME280;39658;51.090;-1.786;2023-01-27T00:11:08;102373.56;;;23.16;39.18
53262;BME280;39658;51.090;-1.786;2023-01-27T00:13:53;102373.72;;;23.07;39.31
53262;BME280;39658;51.090;-1.786;2023-01-27T00:16:20;102369.91;;;23.02;39.63
53262;BME280;39658;51.090;-1.786;2023-01-27T00:18:49;102360.69;;;22.96;39.60
53262;BME280;39658;51.090;-1.786;2023-01-27T00:21:15;102366.91;;;22.90;39.54
53262;BME280;39658;51.090;-1.786;2023-01-27T00:23:59;102372.28;;;22.84;39.86
53262;BME280;39658;51.090;-1.786;2023-01-27T00:26:43;102370.28;;;22.77;39.96
53262;BME280;39658;51.090;-1.786;2023-01-27T00:29:10;102368.34;;;22.71;39.93
53262;BME280;39658;51.090;-1.786;2023-01-27T00:31:37;102368.94;;;22.67;40.02
53262;BME280;39658;51.090;-1.786;2023-01-27T00:34:23;102366.16;;;22.60;40.22
53262;BME280;39658;51.090;-1.786;2023-01-27T00:36:49;102365.06;;;22.55;40.35
53262;BME280;39658;51.090;-1.786;2023-01-27T00:39:16;102373.81;;;22.50;40.36
53262;BME280;39658;51.090;-1.786;2023-01-27T00:41:43;102361.00;;;22.44;40.41
53262;BME280;39658;51.090;-1.786;2023-01-27T00:44:10;102352.59;;;22.39;40.43
53262;BME280;39658;51.090;-1.786;2023-01-27T00:46:37;102364.00;;;22.34;40.57
53262;BME280;39658;51.090;-1.786;2023-01-27T00:49:04;102369.19;;;22.29;40.65
53262;BME280;39658;51.090;-1.786;2023-01-27T00:51:32;102364.31;;;22.25;40.63
53262;BME280;39658;51.090;-1.786;2023-01-27T00:54:01;102356.78;;;22.20;40.68
53262;BME280;39658;51.090;-1.786;2023-01-27T00:56:28;102365.47;;;22.15;40.84
53262;BME280;39658;51.090;-1.786;2023-01-27T00:58:55;102358.75;;;22.11;40.76
53262;BME280;39658;51.090;-1.786;2023-01-27T01:01:22;102355.78;;;22.06;40.86
53262;BME280;39658;51.090;-1.786;2023-01-27T01:03:49;102359.03;;;22.02;40.93
53262;BME280;39658;51.090;-1.786;2023-01-27T01:06:17;102355.19;;;21.96;40.99
53262;BME280;39658;51.090;-1.786;2023-01-27T01:08:46;102358.28;;;21.93;41.12
53262;BME280;39658;51.090;-1.786;2023-01-27T01:11:15;102349.69;;;21.89;41.08
53262;BME280;39658;51.090;-1.786;2023-01-27T01:13:42;102338.78;;;21.83;41.11
53262;BME280;39658;51.090;-1.786;2023-01-27T01:16:11;102343.72;;;21.79;41.14
53262;BME280;39658;51.090;-1.786;2023-01-27T01:18:38;102342.44;;;21.75;41.30
53262;BME280;39658;51.090;-1.786;2023-01-27T01:21:06;102341.97;;;21.72;41.35
53262;BME280;39658;51.090;-1.786;2023-01-27T01:23:33;102334.22;;;21.69;41.28
53262;BME280;39658;51.090;-1.786;2023-01-27T01:26:01;102331.25;;;21.64;41.41
53262;BME280;39658;51.090;-1.786;2023-01-27T01:28:28;102336.16;;;21.60;41.40
53262;BME280;39658;51.090;-1.786;2023-01-27T01:30:55;102340.09;;;21.57;41.52
53262;BME280;39658;51.090;-1.786;2023-01-27T01:33:22;102329.81;;;21.53;41.52
53262;BME280;39658;51.090;-1.786;2023-01-27T01:35:48;102324.78;;;21.50;41.49
53262;BME280;39658;51.090;-1.786;2023-01-27T01:38:15;102315.34;;;21.46;41.63
53262;BME280;39658;51.090;-1.786;2023-01-27T01:40:43;102320.31;;;21.42;41.65
53262;BME280;39658;51.090;-1.786;2023-01-27T01:43:13;102321.53;;;21.40;41.75
53262;BME280;39658;51.090;-1.786;2023-01-27T01:45:49;102326.47;;;21.36;41.69
53262;BME280;39658;51.090;-1.786;2023-01-27T01:48:21;102323.28;;;21.33;41.84
53262;BME280;39658;51.090;-1.786;2023-01-27T01:50:52;102312.00;;;21.29;41.87
53262;BME280;39658;51.090;-1.786;2023-01-27T01:53:22;102306.97;;;21.26;41.83
53262;BME280;39658;51.090;-1.786;2023-01-27T01:55:54;102310.03;;;21.23;41.87
53262;BME280;39658;51.090;-1.786;2023-01-27T01:58:24;102305.97;;;21.19;41.97
53262;BME280;39658;51.090;-1.786;2023-01-27T02:00:53;102315.28;;;21.16;41.95
53262;BME280;39658;51.090;-1.786;2023-01-27T02:03:21;102317.53;;;21.13;41.96
53262;BME280;39658;51.090;-1.786;2023-01-27T02:05:51;102324.16;;;21.10;41.95
53262;BME280;39658;51.090;-1.786;2023-01-27T02:08:20;102325.56;;;21.06;42.07
53262;BME280;39658;51.090;-1.786;2023-01-27T02:10:50;102328.63;;;21.03;42.20
53262;BME280;39658;51.090;-1.786;2023-01-27T02:13:18;102321.72;;;21.01;42.11
53262;BME280;39658;51.090;-1.786;2023-01-27T02:15:47;102323.97;;;20.97;42.11
53262;BME280;39658;51.090;-1.786;2023-01-27T02:18:15;102328.06;;;20.93;42.08
53262;BME280;39658;51.090;-1.786;2023-01-27T02:20:44;102320.31;;;20.90;42.06
53262;BME280;39658;51.090;-1.786;2023-01-27T02:23:19;102322.38;;;20.88;42.21
53262;BME280;39658;51.090;-1.786;2023-01-27T02:25:51;102320.22;;;20.83;42.33
53262;BME280;39658;51.090;-1.786;2023-01-27T02:28:19;102312.28;;;20.82;42.29
53262;BME280;39658;51.090;-1.786;2023-01-27T02:30:46;102308.22;;;20.78;42.25
53262;BME280;39658;51.090;-1.786;2023-01-27T02:33:13;102308.59;;;20.75;42.25
53262;BME280;39658;51.090;-1.786;2023-01-27T02:35:45;102314.38;;;20.72;42.36
53262;BME280;39658;51.090;-1.786;2023-01-27T02:38:16;102320.16;;;20.69;42.36
53262;BME280;39658;51.090;-1.786;2023-01-27T02:40:46;102310.53;;;20.66;42.41
53262;BME280;39658;51.090;-1.786;2023-01-27T02:43:15;102315.47;;;20.62;42.34
53262;BME280;39658;51.090;-1.786;2023-01-27T02:45:44;102317.53;;;20.60;42.48
53262;BME280;39658;51.090;-1.786;2023-01-27T02:48:11;102326.84;;;20.58;42.40
53262;BME280;39658;51.090;-1.786;2023-01-27T02:50:38;102326.38;;;20.54;42.33
53262;BME280;39658;51.090;-1.786;2023-01-27T02:53:05;102321.31;;;20.51;42.46
53262;BME280;39658;51.090;-1.786;2023-01-27T02:55:32;102316.47;;;20.47;42.51
53262;BME280;39658;51.090;-1.786;2023-01-27T02:57:58;102320.38;;;20.44;42.46
53262;BME280;39658;51.090;-1.786;2023-01-27T03:00:27;102326.97;;;20.42;42.48
53262;BME280;39658;51.090;-1.786;2023-01-27T03:02:53;102317.47;;;20.38;42.66
53262;BME280;39658;51.090;-1.786;2023-01-27T03:05:20;102315.13;;;20.34;42.65
53262;BME280;39658;51.090;-1.786;2023-01-27T03:07:47;102312.78;;;20.31;42.62
53262;BME280;39658;51.090;-1.786;2023-01-27T03:10:14;102308.59;;;20.29;42.53
53262;BME280;39658;51.090;-1.786;2023-01-27T03:12:41;102317.06;;;20.26;42.76
53262;BME280;39658;51.090;-1.786;2023-01-27T03:15:09;102306.59;;;20.23;42.81
53262;BME280;39658;51.090;-1.786;2023-01-27T03:18:02;102309.66;;;20.20;42.65
53262;BME280;39658;51.090;-1.786;2023-01-27T03:20:35;102308.16;;;20.17;42.62
53262;BME280;39658;51.090;-1.786;2023-01-27T03:23:02;102305.81;;;20.14;42.83
53262;BME280;39658;51.090;-1.786;2023-01-27T03:25:29;102303.47;;;20.11;42.72
53262;BME280;39658;51.090;-1.786;2023-01-27T03:27:56;102307.38;;;20.09;42.65
53262;BME280;39658;51.090;-1.786;2023-01-27T03:30:22;102298.63;;;20.07;42.74
53262;BME280;39658;51.090;-1.786;2023-01-27T03:32:49;102300.66;;;20.05;42.73
53262;BME280;39658;51.090;-1.786;2023-01-27T03:35:17;102292.91;;;20.01;42.83
53262;BME280;39658;51.090;-1.786;2023-01-27T03:37:45;102291.38;;;19.99;42.75
53262;BME280;39658;51.090;-1.786;2023-01-27T03:40:29;102281.75;;;19.96;42.93
53262;BME280;39658;51.090;-1.786;2023-01-27T03:43:14;102281.09;;;19.94;42.70
53262;BME280;39658;51.090;-1.786;2023-01-27T03:45:58;102274.19;;;19.92;42.95
53262;BME280;39658;51.090;-1.786;2023-01-27T03:48:40;102278.94;;;19.90;43.00
53262;BME280;39658;51.090;-1.786;2023-01-27T03:51:09;102280.13;;;19.87;42.69
53262;BME280;39658;51.090;-1.786;2023-01-27T03:53:36;102282.19;;;19.85;42.87
53262;BME280;39658;51.090;-1.786;2023-01-27T03:56:04;102286.91;;;19.83;42.95
53262;BME280;39658;51.090;-1.786;2023-01-27T03:58:33;102282.72;;;19.81;42.69
53262;BME280;39658;51.090;-1.786;2023-01-27T04:01:02;102282.88;;;19.79;42.72
53262;BME280;39658;51.090;-1.786;2023-01-27T04:03:30;102284.94;;;19.77;42.95
53262;BME280;39658;51.090;-1.786;2023-01-27T04:06:18;102293.22;;;19.76;42.79
53262;BME280;39658;51.090;-1.786;2023-01-27T04:09:03;102291.69;;;19.73;42.97
53262;BME280;39658;51.090;-1.786;2023-01-27T04:11:30;102287.50;;;19.70;42.87
53262;BME280;39658;51.090;-1.786;2023-01-27T04:14:15;102281.44;;;19.68;42.87
53262;BME280;39658;51.090;-1.786;2023-01-27T04:16:42;102274.53;;;19.66;42.65
53262;BME280;39658;51.090;-1.786;2023-01-27T04:19:10;102272.19;;;19.63;42.81
53262;BME280;39658;51.090;-1.786;2023-01-27T04:21:39;102275.06;;;19.61;42.87
53262;BME280;39658;51.090;-1.786;2023-01-27T04:24:06;102282.47;;;19.59;42.94
53262;BME280;39658;51.090;-1.786;2023-01-27T04:26:42;102273.69;;;19.57;42.79
53262;BME280;39658;51.090;-1.786;2023-01-27T04:29:10;102271.16;;;19.56;42.64
53262;BME280;39658;51.090;-1.786;2023-01-27T04:31:37;102265.09;;;19.54;42.89
53262;BME280;39658;51.090;-1.786;2023-01-27T04:34:04;102275.06;;;19.53;42.81
53262;BME280;39658;51.090;-1.786;2023-01-27T04:36:31;102276.41;;;19.49;43.06
53262;BME280;39658;51.090;-1.786;2023-01-27T04:39:01;102264.94;;;19.47;42.89
53262;BME280;39658;51.090;-1.786;2023-01-27T04:41:27;102260.72;;;19.45;42.78
53262;BME280;39658;51.090;-1.786;2023-01-27T04:43:54;102268.16;;;19.42;42.92
53262;BME280;39658;51.090;-1.786;2023-01-27T04:46:21;102260.41;;;19.39;42.95
53262;BME280;39658;51.090;-1.786;2023-01-27T04:48:48;102250.81;;;19.37;43.11
53262;BME280;39658;51.090;-1.786;2023-01-27T04:51:15;102253.69;;;19.35;43.03
53262;BME280;39658;51.090;-1.786;2023-01-27T04:53:41;102261.13;;;19.33;43.02
53262;BME280;39658;51.090;-1.786;2023-01-27T04:56:20;102262.13;;;19.32;42.90
53262;BME280;39658;51.090;-1.786;2023-01-27T04:58:48;102260.63;;;19.30;42.85
53262;BME280;39658;51.090;-1.786;2023-01-27T05:01:15;102262.66;;;19.28;42.80
53262;BME280;39658;51.090;-1.786;2023-01-27T05:03:41;102266.38;;;19.27;43.08
53262;BME280;39658;51.090;-1.786;2023-01-27T05:06:09;102264.03;;;19.24;42.86
53262;BME280;39658;51.090;-1.786;2023-01-27T05:08:36;102267.75;;;19.23;42.66
53262;BME280;39658;51.090;-1.786;2023-01-27T05:11:04;102273.47;;;19.20;42.91
53262;BME280;39658;51.090;-1.786;2023-01-27T05:13:32;102271.78;;;19.19;43.08
53262;BME280;39658;51.090;-1.786;2023-01-27T05:16:04;102272.97;;;19.16;42.78
53262;BME280;39658;51.090;-1.786;2023-01-27T05:18:31;102276.84;;;19.14;42.89
53262;BME280;39658;51.090;-1.786;2023-01-27T05:20:58;102274.34;;;19.12;42.89
53262;BME280;39658;51.090;-1.786;2023-01-27T05:23:25;102280.06;;;19.09;43.22
53262;BME280;39658;51.090;-1.786;2023-01-27T05:26:03;102282.94;;;19.07;42.85
53262;BME280;39658;51.090;-1.786;2023-01-27T05:28:32;102276.03;;;19.05;43.07
53262;BME280;39658;51.090;-1.786;2023-01-27T05:31:01;102271.84;;;19.02;42.79
53262;BME280;39658;51.090;-1.786;2023-01-27T05:33:28;102274.69;;;19.01;43.13
53262;BME280;39658;51.090;-1.786;2023-01-27T05:35:57;102282.13;;;18.99;43.35
53262;BME280;39658;51.090;-1.786;2023-01-27T05:38:24;102273.38;;;18.97;43.21
53262;BME280;39658;51.090;-1.786;2023-01-27T05:40:54;102278.94;;;18.95;43.28
53262;BME280;39658;51.090;-1.786;2023-01-27T05:43:21;102280.97;;;18.93;42.82
53262;BME280;39658;51.090;-1.786;2023-01-27T05:45:49;102280.28;;;18.91;43.06
53262;BME280;39658;51.090;-1.786;2023-01-27T05:48:16;102276.91;;;18.89;42.87
53262;BME280;39658;51.090;-1.786;2023-01-27T05:50:42;102273.56;;;18.87;43.20
53262;BME280;39658;51.090;-1.786;2023-01-27T05:53:09;102270.03;;;18.87;42.97
53262;BME280;39658;51.090;-1.786;2023-01-27T05:55:36;102280.31;;;18.83;43.22
53262;BME280;39658;51.090;-1.786;2023-01-27T05:58:03;102271.50;;;18.81;43.14
53262;BME280;39658;51.090;-1.786;2023-01-27T06:00:29;102276.25;;;18.79;42.95
53262;BME280;39658;51.090;-1.786;2023-01-27T06:02:58;102280.78;;;18.78;43.03
53262;BME280;39658;51.090;-1.786;2023-01-27T06:05:25;102276.59;;;18.76;42.88
53262;BME280;39658;51.090;-1.786;2023-01-27T06:07:52;102272.19;;;18.75;43.20
53262;BME280;39658;51.090;-1.786;2023-01-27T06:10:19;102273.03;;;18.75;42.98
53262;BME280;39658;51.090;-1.786;2023-01-27T06:12:46;102265.78;;;18.76;42.90
53262;BME280;39658;51.090;-1.786;2023-01-27T06:15:12;102286.84;;;18.81;43.04
53262;BME280;39658;51.090;-1.786;2023-01-27T06:17:39;102273.38;;;18.89;42.72
53262;BME280;39658;51.090;-1.786;2023-01-27T06:20:09;102265.94;;;18.99;42.86
53262;BME280;39658;51.090;-1.786;2023-01-27T06:22:36;102262.03;;;19.09;42.46
53262;BME280;39658;51.090;-1.786;2023-01-27T06:25:03;102267.22;;;19.19;42.43
53262;BME280;39658;51.090;-1.786;2023-01-27T06:27:30;102267.22;;;19.27;42.21
53262;BME280;39658;51.090;-1.786;2023-01-27T06:29:56;102272.22;;;19.38;42.01
53262;BME280;39658;51.090;-1.786;2023-01-27T06:32:23;102265.44;;;19.51;41.66
53262;BME280;39658;51.090;-1.786;2023-01-27T06:34:50;102255.28;;;19.61;41.65
53262;BME280;39658;51.090;-1.786;2023-01-27T06:37:18;102260.31;;;19.72;41.70
53262;BME280;39658;51.090;-1.786;2023-01-27T06:39:45;102260.75;;;19.84;41.42
53262;BME280;39658;51.090;-1.786;2023-01-27T06:42:12;102255.75;;;19.95;41.27
53262;BME280;39658;51.090;-1.786;2023-01-27T06:44:38;102263.31;;;20.08;41.10
53262;BME280;39658;51.090;-1.786;2023-01-27T06:47:05;102263.91;;;20.18;40.78
53262;BME280;39658;51.090;-1.786;2023-01-27T06:49:32;102265.34;;;20.29;40.79
53262;BME280;39658;51.090;-1.786;2023-01-27T06:51:59;102262.38;;;20.39;40.56
53262;BME280;39658;51.090;-1.786;2023-01-27T06:54:27;102261.81;;;20.51;40.27
53262;BME280;39658;51.090;-1.786;2023-01-27T06:56:54;102265.28;;;20.60;40.48
53262;BME280;39658;51.090;-1.786;2023-01-27T06:59:20;102273.13;;;20.70;40.25
53262;BME280;39658;51.090;-1.786;2023-01-27T07:01:47;102273.91;;;20.78;39.96
53262;BME280;39658;51.090;-1.786;2023-01-27T07:04:14;102264.13;;;20.92;39.54
53262;BME280;39658;51.090;-1.786;2023-01-27T07:06:41;102264.69;;;21.02;39.58
53262;BME280;39658;51.090;-1.786;2023-01-27T07:09:07;102270.69;;;21.12;39.54
53262;BME280;39658;51.090;-1.786;2023-01-27T07:11:36;102265.34;;;21.19;39.42
53262;BME280;39658;51.090;-1.786;2023-01-27T07:14:03;102270.91;;;21.25;39.29
53262;BME280;39658;51.090;-1.786;2023-01-27T07:16:29;102271.84;;;21.33;39.15
53262;BME280;39658;51.090;-1.786;2023-01-27T07:18:56;102268.19;;;21.40;39.13
53262;BME280;39658;51.090;-1.786;2023-01-27T07:21:23;102270.16;;;21.46;39.07
53262;BME280;39658;51.090;-1.786;2023-01-27T07:23:50;102271.25;;;21.52;39.04
53262;BME280;39658;51.090;-1.786;2023-01-27T07:26:17;102283.19;;;21.57;38.98
53262;BME280;39658;51.090;-1.786;2023-01-27T07:28:45;102277.69;;;21.66;38.98
53262;BME280;39658;51.090;-1.786;2023-01-27T07:31:12;102286.09;;;21.71;38.85
53262;BME280;39658;51.090;-1.786;2023-01-27T07:33:39;102285.13;;;21.78;38.64
53262;BME280;39658;51.090;-1.786;2023-01-27T07:36:06;102277.09;;;21.85;38.70
53262;BME280;39658;51.090;-1.786;2023-01-27T07:38:32;102281.94;;;21.89;38.48
53262;BME280;39658;51.090;-1.786;2023-01-27T07:41:02;102272.84;;;21.97;38.46
53262;BME280;39658;51.090;-1.786;2023-01-27T07:43:29;102285.69;;;22.03;38.50
53262;BME280;39658;51.090;-1.786;2023-01-27T07:45:57;102279.69;;;22.08;38.45
53262;BME280;39658;51.090;-1.786;2023-01-27T07:48:24;102274.50;;;22.13;38.33
53262;BME280;39658;51.090;-1.786;2023-01-27T07:50:51;102276.66;;;22.17;38.36
53262;BME280;39658;51.090;-1.786;2023-01-27T07:53:18;102273.16;;;22.24;38.26
53262;BME280;39658;51.090;-1.786;2023-01-27T07:55:45;102284.25;;;22.29;38.34
53262;BME280;39658;51.090;-1.786;2023-01-27T07:58:12;102287.13;;;22.42;38.08
53262;BME280;39658;51.090;-1.786;2023-01-27T08:00:38;102271.94;;;22.47;38.01
53262;BME280;39658;51.090;-1.786;2023-01-27T08:03:12;102271.97;;;22.54;38.10
53262;BME280;39658;51.090;-1.786;2023-01-27T08:05:44;102278.53;;;22.66;37.97
53262;BME280;39658;51.090;-1.786;2023-01-27T08:08:11;102280.28;;;22.74;37.83
53262;BME280;39658;51.090;-1.786;2023-01-27T08:10:37;102287.63;;;22.80;37.75
53262;BME280;39658;51.090;-1.786;2023-01-27T08:13:04;102285.63;;;22.82;37.89
53262;BME280;39658;51.090;-1.786;2023-01-27T08:15:31;102296.06;;;22.85;37.75
53262;BME280;39658;51.090;-1.786;2023-01-27T08:17:58;102296.53;;;22.89;37.74
53262;BME280;39658;51.090;-1.786;2023-01-27T08:20:27;102297.81;;;22.93;37.90
53262;BME280;39658;51.090;-1.786;2023-01-27T08:22:54;102302.84;;;22.96;37.67
53262;BME280;39658;51.090;-1.786;2023-01-27T08:25:21;102311.41;;;22.99;37.50
53262;BME280;39658;51.090;-1.786;2023-01-27T08:27:49;102312.69;;;23.03;37.62
53262;BME280;39658;51.090;-1.786;2023-01-27T08:30:17;102316.88;;;23.06;37.64
53262;BME280;39658;51.090;-1.786;2023-01-27T08:32:44;102322.75;;;23.09;37.52
53262;BME280;39658;51.090;-1.786;2023-01-27T08:35:11;102320.50;;;23.13;37.53
53262;BME280;39658;51.090;-1.786;2023-01-27T08:37:39;102321.13;;;23.15;37.48
53262;BME280;39658;51.090;-1.786;2023-01-27T08:40:07;102320.09;;;23.16;37.40
53262;BME280;39658;51.090;-1.786;2023-01-27T08:42:34;102325.72;;;23.14;37.63
53262;BME280;39658;51.090;-1.786;2023-01-27T08:45:00;102327.78;;;23.12;37.60
53262;BME280;39658;51.090;-1.786;2023-01-27T08:47:28;102330.91;;;23.09;37.61
53262;BME280;39658;51.090;-1.786;2023-01-27T08:49:55;102336.09;;;23.04;37.70
53262;BME280;39658;51.090;-1.786;2023-01-27T08:52:22;102331.25;;;23.00;37.72
53262;BME280;39658;51.090;-1.786;2023-01-27T08:54:51;102336.44;;;22.95;37.98
53262;BME280;39658;51.090;-1.786;2023-01-27T08:57:17;102333.50;;;22.90;37.83
53262;BME280;39658;51.090;-1.786;2023-01-27T08:59:44;102328.84;;;22.84;38.02
53262;BME280;39658;51.090;-1.786;2023-01-27T09:02:12;102344.81;;;22.78;38.25
53262;BME280;39658;51.090;-1.786;2023-01-27T09:04:39;102342.69;;;22.74;38.18
53262;BME280;39658;51.090;-1.786;2023-01-27T09:07:08;102343.28;;;22.69;38.27
53262;BME280;39658;51.090;-1.786;2023-01-27T09:09:35;102339.47;;;22.64;38.36
53262;BME280;39658;51.090;-1.786;2023-01-27T09:12:03;102351.13;;;22.58;38.42
53262;BME280;39658;51.090;-1.786;2023-01-27T09:14:30;102353.97;;;22.49;38.67
53262;BME280;39658;51.090;-1.786;2023-01-27T09:16:57;102364.75;;;22.43;38.66
53262;BME280;39658;51.090;-1.786;2023-01-27T09:19:24;102351.28;;;22.35;38.63
53262;BME280;39658;51.090;-1.786;2023-01-27T09:21:51;102353.94;;;22.28;38.89
53262;BME280;39658;51.090;-1.786;2023-01-27T09:24:18;102363.88;;;22.21;38.79
53262;BME280;39658;51.090;-1.786;2023-01-27T09:26:45;102364.84;;;22.13;38.90
53262;BME280;39658;51.090;-1.786;2023-01-27T09:29:13;102360.81;;;22.09;38.95
53262;BME280;39658;51.090;-1.786;2023-01-27T09:31:40;102363.44;;;22.03;39.28
53262;BME280;39658;51.090;-1.786;2023-01-27T09:34:06;102363.31;;;21.96;39.07
53262;BME280;39658;51.090;-1.786;2023-01-27T09:36:38;102356.78;;;21.90;39.30
53262;BME280;39658;51.090;-1.786;2023-01-27T09:39:07;102348.59;;;21.84;39.47
53262;BME280;39658;51.090;-1.786;2023-01-27T09:41:51;102359.34;;;21.77;39.56
53262;BME280;39658;51.090;-1.786;2023-01-27T09:44:31;102361.97;;;21.71;39.60
53262;BME280;39658;51.090;-1.786;2023-01-27T09:47:16;102356.47;;;21.64;39.80
53262;BME280;39658;51.090;-1.786;2023-01-27T09:50:04;102358.22;;;21.57;39.82
53262;BME280;39658;51.090;-1.786;2023-01-27T09:52:47;102356.25;;;21.51;39.92
53262;BME280;39658;51.090;-1.786;2023-01-27T09:55:25;102351.78;;;21.43;40.08
53262;BME280;39658;51.090;-1.786;2023-01-27T09:57:57;102363.16;;;21.39;39.92
53262;BME280;39658;51.090;-1.786;2023-01-27T10:00:45;102358.50;;;21.33;40.19
53262;BME280;39658;51.090;-1.786;2023-01-27T10:03:38;102357.38;;;21.27;40.25
53262;BME280;39658;51.090;-1.786;2023-01-27T10:06:36;102348.25;;;21.20;40.21
53262;BME280;39658;51.090;-1.786;2023-01-27T10:09:28;102352.53;;;21.14;40.45
53262;BME280;39658;51.090;-1.786;2023-01-27T10:12:11;102356.84;;;21.09;40.58
53262;BME280;39658;51.090;-1.786;2023-01-27T10:14:47;102360.09;;;21.04;40.67
53262;BME280;39658;51.090;-1.786;2023-01-27T10:17:32;102362.50;;;20.99;40.69
53262;BME280;39658;51.090;-1.786;2023-01-27T10:20:10;102366.63;;;20.95;40.86
53262;BME280;39658;51.090;-1.786;2023-01-27T10:22:46;102357.38;;;20.89;40.77
53262;BME280;39658;51.090;-1.786;2023-01-27T10:25:24;102362.31;;;20.86;40.89
53262;BME280;39658;51.090;-1.786;2023-01-27T10:27:55;102367.38;;;20.81;40.86
53262;BME280;39658;51.090;-1.786;2023-01-27T10:30:27;102377.72;;;20.77;40.94
53262;BME280;39658;51.090;-1.786;2023-01-27T10:33:05;102383.69;;;20.73;41.11
53262;BME280;39658;51.090;-1.786;2023-01-27T10:35:41;102374.44;;;20.67;41.13
53262;BME280;39658;51.090;-1.786;2023-01-27T10:38:17;102367.72;;;20.63;41.14
53262;BME280;39658;51.090;-1.786;2023-01-27T10:40:51;102366.38;;;20.59;41.20
53262;BME280;39658;51.090;-1.786;2023-01-27T10:43:27;102360.50;;;20.55;41.11
53262;BME280;39658;51.090;-1.786;2023-01-27T10:45:59;102368.13;;;20.52;41.35
53262;BME280;39658;51.090;-1.786;2023-01-27T10:48:37;102365.97;;;20.47;41.46
53262;BME280;39658;51.090;-1.786;2023-01-27T10:51:10;102348.44;;;20.43;41.42
53262;BME280;39658;51.090;-1.786;2023-01-27T10:53:47;102357.84;;;20.39;41.45
53262;BME280;39658;51.090;-1.786;2023-01-27T10:56:19;102353.84;;;20.35;41.58
53262;BME280;39658;51.090;-1.786;2023-01-27T10:58:56;102355.03;;;20.32;41.65
53262;BME280;39658;51.090;-1.786;2023-01-27T11:01:30;102351.84;;;20.29;41.55
53262;BME280;39658;51.090;-1.786;2023-01-27T11:04:02;102346.81;;;20.26;41.54
53262;BME280;39658;51.090;-1.786;2023-01-27T11:06:34;102344.44;;;20.23;41.96
53262;BME280;39658;51.090;-1.786;2023-01-27T11:09:23;102342.94;;;20.20;41.93
53262;BME280;39658;51.090;-1.786;2023-01-27T11:11:51;102348.53;;;20.19;41.93
53262;BME280;39658;51.090;-1.786;2023-01-27T11:14:25;102348.06;;;20.15;41.92
53262;BME280;39658;51.090;-1.786;2023-01-27T11:16:57;102346.56;;;20.13;41.96
53262;BME280;39658;51.090;-1.786;2023-01-27T11:19:37;102344.38;;;20.08;41.77
53262;BME280;39658;51.090;-1.786;2023-01-27T11:22:15;102350.16;;;20.05;41.91
53262;BME280;39658;51.090;-1.786;2023-01-27T11:24:45;102345.09;;;20.02;42.01
53262;BME280;39658;51.090;-1.786;2023-01-27T11:27:23;102345.41;;;19.99;41.93
53262;BME280;39658;51.090;-1.786;2023-01-27T11:29:53;102344.75;;;19.97;41.89
53262;BME280;39658;51.090;-1.786;2023-01-27T11:32:32;102348.84;;;19.93;41.99
53262;BME280;39658;51.090;-1.786;2023-01-27T11:35:08;102340.25;;;19.89;41.85
53262;BME280;39658;51.090;-1.786;2023-01-27T11:37:38;102342.28;;;19.87;42.09
53262;BME280;39658;51.090;-1.786;2023-01-27T11:40:14;102328.78;;;19.87;42.22
53262;BME280;39658;51.090;-1.786;2023-01-27T11:42:42;102336.69;;;19.89;42.15
53262;BME280;39658;51.090;-1.786;2023-01-27T11:45:13;102324.34;;;19.94;42.07
53262;BME280;39658;51.090;-1.786;2023-01-27T11:47:41;102328.19;;;20.00;41.90
53262;BME280;39658;51.090;-1.786;2023-01-27T11:50:14;102317.34;;;20.08;41.92
53262;BME280;39658;51.090;-1.786;2023-01-27T11:52:42;102312.56;;;20.18;41.77
53262;BME280;39658;51.090;-1.786;2023-01-27T11:55:16;102316.03;;;20.27;41.70
53262;BME280;39658;51.090;-1.786;2023-01-27T11:57:48;102314.78;;;20.38;41.37
53262;BME280;39658;51.090;-1.786;2023-01-27T12:00:21;102302.56;;;20.50;41.25
53262;BME280;39658;51.090;-1.786;2023-01-27T12:02:57;102307.19;;;20.64;41.08
53262;BME280;39658;51.090;-1.786;2023-01-27T12:05:31;102308.88;;;20.80;40.91
53262;BME280;39658;51.090;-1.786;2023-01-27T12:08:00;102300.16;;;20.92;40.75
53262;BME280;39658;51.090;-1.786;2023-01-27T12:10:30;102297.66;;;21.06;40.50
53262;BME280;39658;51.090;-1.786;2023-01-27T12:13:00;102297.19;;;21.17;40.32
53262;BME280;39658;51.090;-1.786;2023-01-27T12:15:32;102302.19;;;21.28;40.22
53262;BME280;39658;51.090;-1.786;2023-01-27T12:18:03;102301.34;;;21.42;39.95
53262;BME280;39658;51.090;-1.786;2023-01-27T12:20:37;102303.75;;;21.52;39.91
53262;BME280;39658;51.090;-1.786;2023-01-27T12:23:14;102307.88;;;21.63;39.65
53262;BME280;39658;51.090;-1.786;2023-01-27T12:25:46;102311.13;;;21.73;39.42
53262;BME280;39658;51.090;-1.786;2023-01-27T12:28:27;102312.69;;;21.82;39.53
53262;BME280;39658;51.090;-1.786;2023-01-27T12:31:05;102303.41;;;21.91;39.28
53262;BME280;39658;51.090;-1.786;2023-01-27T12:33:33;102304.13;;;22.00;39.37
53262;BME280;39658;51.090;-1.786;2023-01-27T12:36:11;102289.50;;;22.09;39.00
53262;BME280;39658;51.090;-1.786;2023-01-27T12:38:44;102287.94;;;22.21;39.09
53262;BME280;39658;51.090;-1.786;2023-01-27T12:41:20;102288.19;;;22.26;38.97
53262;BME280;39658;51.090;-1.786;2023-01-27T12:43:50;102275.09;;;22.30;39.01
53262;BME280;39658;51.090;-1.786;2023-01-27T12:46:21;102272.19;;;22.31;38.88
53262;BME280;39658;51.090;-1.786;2023-01-27T12:48:49;102266.75;;;22.31;38.69
53262;BME280;39658;51.090;-1.786;2023-01-27T12:51:21;102273.84;;;22.32;38.70
53262;BME280;39658;51.090;-1.786;2023-01-27T12:53:49;102275.72;;;22.32;38.97
53262;BME280;39658;51.090;-1.786;2023-01-27T12:56:18;102270.50;;;22.30;38.89